createdAt,value
2016-02-29T00:00:12.215Z,0
2016-02-29T00:01:12.232Z,0
2016-02-29T00:02:12.220Z,0
2016-02-29T00:03:12.207Z,0
2016-02-29T00:04:12.209Z,0
2016-02-29T00:05:12.056Z,0
2016-02-29T00:06:12.231Z,0
2016-02-29T00:07:12.217Z,0
2016-02-29T00:08:12.251Z,0
2016-02-29T00:09:12.208Z,0
2016-02-29T00:10:12.226Z,0
2016-02-29T00:11:12.245Z,0
2016-02-29T00:12:12.216Z,0
2016-02-29T00:13:12.219Z,0
2016-02-29T00:14:12.206Z,0
2016-02-29T00:15:12.224Z,0
2016-02-29T00:16:12.211Z,0
2016-02-29T00:17:12.214Z,0
2016-02-29T00:18:12.201Z,0
2016-02-29T00:19:12.047Z,0
2016-02-29T00:20:12.206Z,0
2016-02-29T00:21:12.208Z,0
2016-02-29T00:22:12.211Z,0
2016-02-29T00:23:12.214Z,0
2016-02-29T00:24:12.216Z,0
2016-02-29T00:25:12.204Z,0
2016-02-29T00:26:12.237Z,0
2016-02-29T00:27:12.210Z,0
2016-02-29T00:28:12.227Z,0
2016-02-29T00:29:12.215Z,0
2016-02-29T00:30:12.207Z,0
2016-02-29T00:31:12.209Z,0
2016-02-29T00:32:12.212Z,0
2016-02-29T00:33:12.214Z,0
2016-02-29T00:34:12.201Z,0
2016-02-29T00:35:12.204Z,0
2016-02-29T00:36:12.206Z,0
2016-02-29T00:37:12.194Z,0
2016-02-29T00:38:12.212Z,0
2016-02-29T00:39:12.214Z,0
2016-02-29T00:40:12.202Z,0
2016-02-29T00:41:12.205Z,0
2016-02-29T00:42:12.192Z,0
2016-02-29T00:43:12.210Z,0
2016-02-29T00:44:12.197Z,0
2016-02-29T00:45:12.200Z,0
2016-02-29T00:46:12.202Z,0
2016-02-29T00:47:12.205Z,0
2016-02-29T00:48:12.224Z,0
2016-02-29T00:49:12.210Z,0
2016-02-29T00:50:12.213Z,0
2016-02-29T00:51:12.216Z,0
2016-02-29T00:52:12.203Z,0
2016-02-29T00:53:12.206Z,0
2016-02-29T00:54:12.209Z,0
2016-02-29T00:55:12.211Z,0
2016-02-29T00:56:12.214Z,0
2016-02-29T00:57:12.185Z,0
2016-02-29T00:58:12.188Z,0
2016-02-29T00:59:12.222Z,0
2016-02-29T01:00:12.193Z,0
2016-02-29T01:01:12.195Z,0
2016-02-29T01:02:12.198Z,0
2016-02-29T01:03:12.217Z,0
2016-02-29T01:04:12.204Z,0
2016-02-29T01:05:12.206Z,0
2016-02-29T01:06:12.194Z,0
2016-02-29T01:07:12.197Z,0
2016-02-29T01:08:12.183Z,0
2016-02-29T01:09:12.186Z,0
2016-02-29T01:10:12.204Z,0
2016-02-29T01:11:12.191Z,0
2016-02-29T01:12:12.194Z,0
2016-02-29T01:13:12.197Z,0
2016-02-29T01:14:12.200Z,0
2016-02-29T01:15:12.218Z,0
2016-02-29T01:16:12.205Z,0
2016-02-29T01:17:12.192Z,0
2016-02-29T01:18:12.195Z,0
2016-02-29T01:19:12.197Z,0
2016-02-29T01:20:12.199Z,0
2016-02-29T01:21:12.203Z,0
2016-02-29T01:22:12.190Z,0
2016-02-29T01:23:12.177Z,0
2016-02-29T01:24:12.196Z,0
2016-02-29T01:25:12.198Z,0
2016-02-29T01:26:12.185Z,0
2016-02-29T01:27:12.188Z,0
2016-02-29T01:28:12.207Z,0
2016-02-29T01:29:12.177Z,0
2016-02-29T01:30:12.195Z,0
2016-02-29T01:31:12.183Z,0
2016-02-29T01:32:12.201Z,0
2016-02-29T01:33:12.188Z,0
2016-02-29T01:34:12.176Z,0
2016-02-29T01:35:12.240Z,0
2016-02-29T01:36:12.181Z,0
2016-02-29T01:37:12.200Z,0
2016-02-29T01:38:12.186Z,0
2016-02-29T01:39:12.172Z,0
2016-02-29T01:40:12.175Z,0
2016-02-29T01:41:12.178Z,0
2016-02-29T01:42:12.259Z,0
2016-02-29T01:43:12.183Z,0
2016-02-29T01:44:12.202Z,0
2016-02-29T01:45:12.174Z,0
2016-02-29T01:46:12.192Z,0
2016-02-29T01:47:12.179Z,0
2016-02-29T01:48:12.182Z,0
2016-02-29T01:49:12.185Z,0
2016-02-29T01:50:12.202Z,0
2016-02-29T01:51:12.205Z,0
2016-02-29T01:52:12.177Z,0
2016-02-29T01:53:12.180Z,0
2016-02-29T01:54:12.199Z,0
2016-02-29T01:55:12.169Z,0
2016-02-29T01:56:12.047Z,0
2016-02-29T01:57:12.175Z,0
2016-02-29T01:58:12.193Z,0
2016-02-29T01:59:12.165Z,0
2016-02-29T02:00:12.212Z,0
2016-02-29T02:01:12.153Z,0
2016-02-29T02:02:12.156Z,0
2016-02-29T02:03:12.143Z,0
2016-02-29T02:04:12.116Z,0
2016-02-29T02:05:12.120Z,0
2016-02-29T02:06:12.102Z,0
2016-02-29T02:07:12.084Z,0
2016-02-29T02:08:12.081Z,0
2016-02-29T02:09:12.078Z,0
2016-02-29T02:10:12.076Z,0
2016-02-29T02:11:12.062Z,0
2016-02-29T02:12:12.063Z,0
2016-02-29T02:13:12.063Z,0
2016-02-29T02:14:12.064Z,0
2016-02-29T02:15:12.049Z,0
2016-02-29T02:16:11.910Z,0
2016-02-29T02:17:12.053Z,0
2016-02-29T02:18:12.071Z,0
2016-02-29T02:19:12.056Z,0
2016-02-29T02:20:12.075Z,0
2016-02-29T02:21:12.045Z,0
2016-02-29T02:22:12.049Z,0
2016-02-29T02:23:12.051Z,0
2016-02-29T02:24:12.054Z,0
2016-02-29T02:25:12.089Z,0
2016-02-29T02:26:12.044Z,0
2016-02-29T02:27:12.078Z,0
2016-02-29T02:28:12.049Z,0
2016-02-29T02:29:12.052Z,0
2016-02-29T02:30:12.054Z,0
2016-02-29T02:31:12.058Z,0
2016-02-29T02:32:12.045Z,0
2016-02-29T02:33:12.047Z,0
2016-02-29T02:34:12.066Z,0
2016-02-29T02:35:12.052Z,0
2016-02-29T02:36:12.039Z,0
2016-02-29T02:37:12.042Z,0
2016-02-29T02:38:12.044Z,0
2016-02-29T02:39:12.047Z,0
2016-02-29T02:40:12.050Z,0
2016-02-29T02:41:12.037Z,0
2016-02-29T02:42:12.055Z,0
2016-02-29T02:43:12.043Z,0
2016-02-29T02:44:12.030Z,0
2016-02-29T02:45:12.048Z,0
2016-02-29T02:46:12.035Z,0
2016-02-29T02:47:12.054Z,0
2016-02-29T02:48:12.040Z,0
2016-02-29T02:49:12.027Z,0
2016-02-29T02:50:12.046Z,0
2016-02-29T02:51:12.064Z,0
2016-02-29T02:52:12.036Z,0
2016-02-29T02:53:12.039Z,0
2016-02-29T02:54:12.025Z,0
2016-02-29T02:55:12.044Z,0
2016-02-29T02:56:12.062Z,0
2016-02-29T02:57:12.033Z,0
2016-02-29T02:58:12.037Z,0
2016-02-29T02:59:12.039Z,0
2016-02-29T03:00:12.042Z,0
2016-02-29T03:01:12.028Z,0
2016-02-29T03:02:12.031Z,0
2016-02-29T03:03:12.034Z,0
2016-02-29T03:04:12.037Z,0
2016-02-29T03:05:12.039Z,0
2016-02-29T03:06:12.042Z,0
2016-02-29T03:07:12.045Z,0
2016-02-29T03:08:12.047Z,0
2016-02-29T03:09:12.035Z,0
2016-02-29T03:10:12.038Z,0
2016-02-29T03:11:12.024Z,0
2016-02-29T03:12:12.027Z,0
2016-02-29T03:13:12.046Z,0
2016-02-29T03:14:12.032Z,0
2016-02-29T03:15:12.035Z,0
2016-02-29T03:16:12.038Z,0
2016-02-29T03:17:12.025Z,0
2016-02-29T03:18:12.027Z,0
2016-02-29T03:19:12.030Z,0
2016-02-29T03:20:12.032Z,0
2016-02-29T03:21:12.035Z,0
2016-02-29T03:22:12.022Z,0
2016-02-29T03:23:12.026Z,0
2016-02-29T03:24:12.012Z,0
2016-02-29T03:25:12.031Z,0
2016-02-29T03:26:12.017Z,0
2016-02-29T03:27:12.020Z,0
2016-02-29T03:28:12.039Z,0
2016-02-29T03:29:12.026Z,0
2016-02-29T03:30:12.029Z,0
2016-02-29T03:31:12.031Z,0
2016-02-29T03:32:12.034Z,0
2016-02-29T03:33:12.021Z,0
2016-02-29T03:34:12.025Z,0
2016-02-29T03:35:12.027Z,0
2016-02-29T03:36:12.045Z,0
2016-02-29T03:37:12.032Z,0
2016-02-29T03:38:12.019Z,0
2016-02-29T03:39:12.021Z,0
2016-02-29T03:40:12.040Z,0
2016-02-29T03:41:12.026Z,0
2016-02-29T03:42:12.076Z,0
2016-02-29T03:43:12.017Z,0
2016-02-29T03:44:12.035Z,0
2016-02-29T03:45:12.021Z,0
2016-02-29T03:46:12.009Z,0
2016-02-29T03:47:12.012Z,0
2016-02-29T03:48:12.015Z,0
2016-02-29T03:49:12.033Z,0
2016-02-29T03:50:12.035Z,0
2016-02-29T03:51:11.851Z,0
2016-02-29T03:52:12.009Z,0
2016-02-29T03:53:12.013Z,0
2016-02-29T03:54:12.015Z,0
2016-02-29T03:55:12.018Z,0
2016-02-29T03:56:12.004Z,0
2016-02-29T03:57:12.007Z,0
2016-02-29T03:58:12.026Z,0
2016-02-29T03:59:12.013Z,0
2016-02-29T04:00:12.000Z,0
2016-02-29T04:01:12.003Z,0
2016-02-29T04:02:12.021Z,0
2016-02-29T04:03:12.009Z,0
2016-02-29T04:04:12.026Z,0
2016-02-29T04:05:11.998Z,0
2016-02-29T04:06:12.017Z,0
2016-02-29T04:07:12.003Z,0
2016-02-29T04:08:12.005Z,0
2016-02-29T04:09:11.993Z,0
2016-02-29T04:10:12.011Z,0
2016-02-29T04:11:12.013Z,0
2016-02-29T04:12:12.001Z,0
2016-02-29T04:13:12.004Z,0
2016-02-29T04:14:12.007Z,0
2016-02-29T04:15:12.009Z,0
2016-02-29T04:16:12.012Z,0
2016-02-29T04:17:12.029Z,0
2016-02-29T04:18:12.018Z,0
2016-02-29T04:19:11.988Z,0
2016-02-29T04:20:12.007Z,0
2016-02-29T04:21:12.010Z,0
2016-02-29T04:22:12.012Z,0
2016-02-29T04:23:11.999Z,0
2016-02-29T04:24:12.017Z,0
2016-02-29T04:25:12.004Z,0
2016-02-29T04:26:11.992Z,0
2016-02-29T04:27:11.995Z,0
2016-02-29T04:28:11.999Z,0
2016-02-29T04:29:12.016Z,0
2016-02-29T04:30:12.004Z,0
2016-02-29T04:31:11.991Z,0
2016-02-29T04:32:11.993Z,0
2016-02-29T04:33:11.996Z,0
2016-02-29T04:34:11.998Z,0
2016-02-29T04:35:11.986Z,0
2016-02-29T04:36:11.988Z,0
2016-02-29T04:37:11.991Z,0
2016-02-29T04:38:11.993Z,0
2016-02-29T04:39:11.996Z,0
2016-02-29T04:40:11.984Z,0
2016-02-29T04:41:11.986Z,0
2016-02-29T04:42:12.004Z,0
2016-02-29T04:43:11.992Z,0
2016-02-29T04:44:11.994Z,0
2016-02-29T04:45:11.981Z,0
2016-02-29T04:46:12.000Z,0
2016-02-29T04:47:12.002Z,0
2016-02-29T04:48:11.990Z,0
2016-02-29T04:49:11.992Z,0
2016-02-29T04:50:11.979Z,0
2016-02-29T04:51:11.997Z,0
2016-02-29T04:52:11.984Z,0
2016-02-29T04:53:11.987Z,0
2016-02-29T04:54:11.989Z,0
2016-02-29T04:55:11.977Z,0
2016-02-29T04:56:11.980Z,0
2016-02-29T04:57:12.030Z,0
2016-02-29T04:58:11.983Z,0
2016-02-29T04:59:11.985Z,0
2016-02-29T05:00:11.988Z,0
2016-02-29T05:01:11.974Z,0
2016-02-29T05:02:11.978Z,0
2016-02-29T05:03:11.965Z,0
2016-02-29T05:04:11.968Z,0
2016-02-29T05:05:11.845Z,0
2016-02-29T05:06:11.976Z,0
2016-02-29T05:07:11.963Z,0
2016-02-29T05:08:11.965Z,0
2016-02-29T05:09:11.984Z,0
2016-02-29T05:10:11.971Z,0
2016-02-29T05:11:11.989Z,0
2016-02-29T05:12:12.007Z,0
2016-02-29T05:13:11.978Z,0
2016-02-29T05:14:11.981Z,0
2016-02-29T05:15:11.969Z,0
2016-02-29T05:16:11.971Z,0
2016-02-29T05:17:11.974Z,0
2016-02-29T05:18:11.976Z,0
2016-02-29T05:19:11.979Z,0
2016-02-29T05:20:11.981Z,0
2016-02-29T05:21:11.969Z,0
2016-02-29T05:22:11.972Z,0
2016-02-29T05:23:11.974Z,0
2016-02-29T05:24:11.977Z,0
2016-02-29T05:25:11.964Z,0
2016-02-29T05:26:11.966Z,0
2016-02-29T05:27:11.985Z,0
2016-02-29T05:28:11.972Z,0
2016-02-29T05:29:11.975Z,0
2016-02-29T05:30:11.977Z,0
2016-02-29T05:31:11.964Z,0
2016-02-29T05:32:11.966Z,0
2016-02-29T05:33:11.969Z,0
2016-02-29T05:34:11.958Z,0
2016-02-29T05:35:11.960Z,0
2016-02-29T05:36:11.963Z,0
2016-02-29T05:37:11.965Z,0
2016-02-29T05:38:11.968Z,0
2016-02-29T05:39:11.971Z,0
2016-02-29T05:40:11.974Z,0
2016-02-29T05:41:11.960Z,0
2016-02-29T05:42:11.916Z,0
2016-02-29T05:43:11.809Z,0
2016-02-29T05:44:11.969Z,0
2016-02-29T05:45:11.970Z,0
2016-02-29T05:46:11.974Z,0
2016-02-29T05:47:11.962Z,0
2016-02-29T05:48:11.948Z,0
2016-02-29T05:49:11.951Z,0
2016-02-29T05:50:11.970Z,4
2016-02-29T05:51:11.956Z,4
2016-02-29T05:52:11.959Z,4
2016-02-29T05:53:11.946Z,4
2016-02-29T05:54:11.964Z,4
2016-02-29T05:55:11.951Z,4
2016-02-29T05:56:11.953Z,8
2016-02-29T05:57:12.204Z,4
2016-02-29T05:58:11.873Z,4
2016-02-29T05:59:11.816Z,8
2016-02-29T06:00:12.059Z,8
2016-02-29T06:01:13.926Z,8
2016-02-29T06:02:11.975Z,12
2016-02-29T06:03:11.963Z,12
2016-02-29T06:04:11.966Z,16
2016-02-29T06:05:11.983Z,12
2016-02-29T06:06:11.956Z,20
2016-02-29T06:07:11.942Z,20
2016-02-29T06:08:11.945Z,24
2016-02-29T06:09:11.963Z,28
2016-02-29T06:10:11.950Z,28
2016-02-29T06:11:11.953Z,32
2016-02-29T06:12:11.831Z,36
2016-02-29T06:13:11.943Z,48
2016-02-29T06:14:11.946Z,48
2016-02-29T06:15:11.948Z,64
2016-02-29T06:16:11.952Z,76
2016-02-29T06:17:11.954Z,80
2016-02-29T06:18:11.949Z,92
2016-02-29T06:19:11.936Z,92
2016-02-29T06:20:11.938Z,100
2016-02-29T06:21:11.941Z,112
2016-02-29T06:22:11.943Z,136
2016-02-29T06:23:11.946Z,136
2016-02-29T06:24:11.949Z,140
2016-02-29T06:25:11.937Z,156
2016-02-29T06:26:11.954Z,180
2016-02-29T06:27:11.832Z,192
2016-02-29T06:28:11.944Z,212
2016-02-29T06:29:11.947Z,212
2016-02-29T06:30:11.934Z,224
2016-02-29T06:31:11.937Z,240
2016-02-29T06:32:11.939Z,276
2016-02-29T06:33:11.942Z,296
2016-02-29T06:34:11.944Z,308
2016-02-29T06:35:11.931Z,344
2016-02-29T06:36:11.934Z,380
2016-02-29T06:37:11.937Z,396
2016-02-29T06:38:11.940Z,352
2016-02-29T06:39:11.942Z,364
2016-02-29T06:40:11.945Z,392
2016-02-29T06:41:11.932Z,440
2016-02-29T06:42:11.966Z,484
2016-02-29T06:43:11.938Z,500
2016-02-29T06:44:11.941Z,524
2016-02-29T06:45:11.943Z,544
2016-02-29T06:46:11.930Z,580
2016-02-29T06:47:11.948Z,596
2016-02-29T06:48:11.952Z,604
2016-02-29T06:49:11.938Z,600
2016-02-29T06:50:11.925Z,580
2016-02-29T06:51:11.927Z,528
2016-02-29T06:52:11.946Z,500
2016-02-29T06:53:11.949Z,564
2016-02-29T06:54:11.935Z,584
2016-02-29T06:55:11.923Z,556
2016-02-29T06:56:11.926Z,540
2016-02-29T06:57:11.788Z,560
2016-02-29T06:58:11.931Z,560
2016-02-29T06:59:11.934Z,588
2016-02-29T07:00:11.920Z,612
2016-02-29T07:01:11.924Z,544
2016-02-29T07:02:11.926Z,592
2016-02-29T07:03:11.929Z,624
2016-02-29T07:04:11.931Z,608
2016-02-29T07:05:11.934Z,604
2016-02-29T07:06:11.922Z,596
2016-02-29T07:07:11.939Z,580
2016-02-29T07:08:11.958Z,580
2016-02-29T07:09:11.930Z,552
2016-02-29T07:10:11.932Z,604
2016-02-29T07:11:11.919Z,548
2016-02-29T07:12:11.938Z,580
2016-02-29T07:13:11.924Z,568
2016-02-29T07:14:11.989Z,544
2016-02-29T07:15:11.930Z,540
2016-02-29T07:16:11.933Z,536
2016-02-29T07:17:11.919Z,544
2016-02-29T07:18:11.922Z,616
2016-02-29T07:19:11.925Z,612
2016-02-29T07:20:11.928Z,544
2016-02-29T07:21:11.915Z,568
2016-02-29T07:22:11.933Z,548
2016-02-29T07:23:11.935Z,540
2016-02-29T07:24:11.751Z,548
2016-02-29T07:25:11.926Z,560
2016-02-29T07:26:11.928Z,500
2016-02-29T07:27:11.932Z,496
2016-02-29T07:28:11.918Z,524
2016-02-29T07:29:11.921Z,600
2016-02-29T07:30:11.923Z,544
2016-02-29T07:31:11.910Z,528
2016-02-29T07:32:11.913Z,536
2016-02-29T07:33:11.915Z,600
2016-02-29T07:34:11.934Z,632
2016-02-29T07:35:11.906Z,664
2016-02-29T07:36:11.908Z,688
2016-02-29T07:37:11.911Z,704
2016-02-29T07:38:11.929Z,652
2016-02-29T07:39:11.931Z,688
2016-02-29T07:40:11.920Z,692
2016-02-29T07:41:11.922Z,668
2016-02-29T07:42:11.925Z,672
2016-02-29T07:43:11.942Z,724
2016-02-29T07:44:11.914Z,772
2016-02-29T07:45:11.917Z,748
2016-02-29T07:46:11.920Z,764
2016-02-29T07:47:11.922Z,724
2016-02-29T07:48:11.925Z,788
2016-02-29T07:49:11.913Z,840
2016-02-29T07:50:11.915Z,948
2016-02-29T07:51:11.933Z,1024
2016-02-29T07:52:11.920Z,1052
2016-02-29T07:53:11.766Z,1084
2016-02-29T07:54:11.926Z,1000
2016-02-29T07:55:11.913Z,856
2016-02-29T07:56:11.759Z,836
2016-02-29T07:57:11.918Z,792
2016-02-29T07:58:11.921Z,740
2016-02-29T07:59:11.924Z,744
2016-02-29T08:00:11.910Z,756
2016-02-29T08:01:11.913Z,772
2016-02-29T08:02:11.915Z,680
2016-02-29T08:03:11.918Z,720
2016-02-29T08:04:11.967Z,676
2016-02-29T08:05:11.923Z,672
2016-02-29T08:06:11.912Z,652
2016-02-29T08:07:11.914Z,632
2016-02-29T08:08:11.916Z,680
2016-02-29T08:09:11.934Z,724
2016-02-29T08:10:11.937Z,800
2016-02-29T08:11:11.925Z,772
2016-02-29T08:12:11.912Z,768
2016-02-29T08:13:11.914Z,792
2016-02-29T08:14:11.917Z,776
2016-02-29T08:15:11.919Z,784
2016-02-29T08:16:11.922Z,840
2016-02-29T08:17:11.908Z,768
2016-02-29T08:18:11.911Z,760
2016-02-29T08:19:11.899Z,852
2016-02-29T08:20:11.902Z,820
2016-02-29T08:21:11.904Z,812
2016-02-29T08:22:11.751Z,896
2016-02-29T08:23:11.909Z,884
2016-02-29T08:24:11.913Z,800
2016-02-29T08:25:12.478Z,820
2016-02-29T08:26:11.933Z,852
2016-02-29T08:27:11.921Z,848
2016-02-29T08:28:11.893Z,976
2016-02-29T08:29:11.926Z,1004
2016-02-29T08:30:11.912Z,924
2016-02-29T08:31:11.915Z,956
2016-02-29T08:32:11.935Z,988
2016-02-29T08:33:11.906Z,1020
2016-02-29T08:34:11.909Z,976
2016-02-29T08:35:11.926Z,1012
2016-02-29T08:36:11.914Z,1032
2016-02-29T08:37:11.931Z,968
2016-02-29T08:38:11.934Z,1044
2016-02-29T08:39:11.922Z,1100
2016-02-29T08:40:11.909Z,1112
2016-02-29T08:41:11.912Z,1124
2016-02-29T08:42:11.914Z,1084
2016-02-29T08:43:11.917Z,1080
2016-02-29T08:44:11.919Z,1112
2016-02-29T08:45:11.923Z,1116
2016-02-29T08:46:11.909Z,1088
2016-02-29T08:47:11.912Z,1096
2016-02-29T08:48:11.914Z,1064
2016-02-29T08:49:11.949Z,1224
2016-02-29T08:50:11.935Z,1260
2016-02-29T08:51:11.907Z,1112
2016-02-29T08:52:11.909Z,1084
2016-02-29T08:53:11.913Z,1132
2016-02-29T08:54:11.931Z,1104
2016-02-29T08:55:11.918Z,1028
2016-02-29T08:56:11.905Z,1040
2016-02-29T08:57:11.907Z,972
2016-02-29T08:58:11.926Z,960
2016-02-29T08:59:11.912Z,936
2016-02-29T09:00:11.931Z,844
2016-02-29T09:01:11.919Z,816
2016-02-29T09:02:11.937Z,824
2016-02-29T09:03:11.940Z,820
2016-02-29T09:04:11.926Z,828
2016-02-29T09:05:11.945Z,840
2016-02-29T09:06:11.915Z,844
2016-02-29T09:07:11.934Z,876
2016-02-29T09:08:11.905Z,984
2016-02-29T09:09:11.908Z,940
2016-02-29T09:10:11.894Z,900
2016-02-29T09:11:11.928Z,864
2016-02-29T09:12:11.899Z,868
2016-02-29T09:13:11.933Z,896
2016-02-29T09:14:11.905Z,812
2016-02-29T09:15:11.924Z,780
2016-02-29T09:16:11.911Z,784
2016-02-29T09:17:11.929Z,820
2016-02-29T09:18:11.946Z,844
2016-02-29T09:19:11.919Z,892
2016-02-29T09:20:11.907Z,1008
2016-02-29T09:21:11.940Z,1024
2016-02-29T09:22:11.927Z,1076
2016-02-29T09:23:11.914Z,1036
2016-02-29T09:24:11.932Z,1032
2016-02-29T09:25:12.512Z,1024
2016-02-29T09:26:11.937Z,1016
2016-02-29T09:27:11.910Z,940
2016-02-29T09:28:11.912Z,1008
2016-02-29T09:29:11.915Z,1100
2016-02-29T09:30:11.917Z,1168
2016-02-29T09:31:11.919Z,1272
2016-02-29T09:32:11.922Z,1340
2016-02-29T09:33:11.926Z,1224
2016-02-29T09:34:11.912Z,1164
2016-02-29T09:35:11.915Z,1248
2016-02-29T09:36:11.917Z,1304
2016-02-29T09:37:11.920Z,1332
2016-02-29T09:38:11.923Z,1352
2016-02-29T09:39:11.926Z,1420
2016-02-29T09:40:11.928Z,1488
2016-02-29T09:41:11.900Z,1612
2016-02-29T09:42:11.918Z,1668
2016-02-29T09:43:11.936Z,1684
2016-02-29T09:44:11.923Z,1728
2016-02-29T09:45:11.910Z,1764
2016-02-29T09:46:11.913Z,1848
2016-02-29T09:47:11.932Z,1840
2016-02-29T10:16:22.996Z,2272
2016-02-29T10:17:22.982Z,2176
2016-02-29T10:18:22.830Z,2072
2016-02-29T10:19:22.988Z,2092
2016-02-29T10:20:22.976Z,2104
2016-02-29T10:21:23.009Z,1984
2016-02-29T10:22:23.121Z,1896
2016-02-29T10:23:22.983Z,1756
2016-02-29T10:24:22.970Z,1728
2016-02-29T10:25:22.989Z,1660
2016-02-29T10:26:22.976Z,1564
2016-02-29T10:27:22.963Z,1436
2016-02-29T10:28:22.981Z,1328
2016-02-29T10:29:22.984Z,1164
2016-02-29T10:30:22.987Z,1208
2016-02-29T10:31:22.989Z,1208
2016-02-29T10:32:22.977Z,1164
2016-02-29T10:33:22.979Z,1072
2016-02-29T10:34:22.997Z,1108
2016-02-29T10:35:22.985Z,1148
2016-02-29T10:36:22.972Z,1180
2016-02-29T10:37:22.974Z,1272
2016-02-29T10:38:22.993Z,1180
2016-02-29T10:39:22.996Z,1172
2016-02-29T10:40:22.982Z,1236
2016-02-29T10:41:22.985Z,1180
2016-02-29T10:42:22.988Z,1092
2016-02-29T10:43:22.990Z,1056
2016-02-29T10:44:23.009Z,1088
2016-02-29T10:45:22.980Z,1120
2016-02-29T10:46:23.015Z,1160
2016-02-29T10:47:23.001Z,1144
2016-02-29T10:48:22.988Z,1128
2016-02-29T10:49:22.991Z,1024
2016-02-29T10:50:22.978Z,980
2016-02-29T10:51:23.043Z,976
2016-02-29T10:52:23.015Z,944
2016-02-29T10:53:23.017Z,916
2016-02-29T10:54:23.004Z,944
2016-02-29T10:55:23.007Z,1012
2016-02-29T10:56:22.978Z,1032
2016-02-29T10:57:22.997Z,960
2016-02-29T10:58:22.984Z,1008
2016-02-29T10:59:23.002Z,1100
2016-02-29T11:00:22.989Z,1128
2016-02-29T11:01:22.992Z,1108
2016-02-29T11:02:23.011Z,1076
2016-02-29T11:03:22.997Z,1100
2016-02-29T11:04:23.016Z,1196
2016-02-29T11:05:22.992Z,1368
2016-02-29T11:06:23.007Z,1516
2016-02-29T11:07:22.999Z,1524
2016-02-29T11:08:22.975Z,1504
2016-02-29T11:09:22.967Z,1472
2016-02-29T11:10:22.958Z,1420
2016-02-29T11:11:22.936Z,1440
2016-02-29T11:12:22.950Z,1488
2016-02-29T11:13:22.934Z,1540
2016-02-29T11:14:22.947Z,1664
2016-02-29T11:15:22.932Z,1716
2016-02-29T11:16:22.931Z,1716
2016-02-29T11:17:22.947Z,1728
2016-02-29T11:18:22.917Z,1780
2016-02-29T11:19:22.935Z,1864
2016-02-29T11:20:22.920Z,1928
2016-02-29T11:21:22.922Z,1888
2016-02-29T11:22:22.924Z,1728
2016-02-29T11:23:22.926Z,1720
2016-02-29T11:24:22.928Z,1820
2016-02-29T11:25:22.915Z,1912
2016-02-29T11:26:22.933Z,1948
2016-02-29T11:27:22.919Z,1992
2016-02-29T11:28:22.921Z,1964
2016-02-29T11:29:22.940Z,1948
2016-02-29T11:30:22.911Z,1988
2016-02-29T11:31:22.929Z,2040
2016-02-29T11:32:22.916Z,2044
2016-02-29T11:33:22.934Z,2180
2016-02-29T11:34:22.937Z,2228
2016-02-29T11:35:22.971Z,2300
2016-02-29T11:36:22.958Z,2392
2016-02-29T11:37:22.930Z,2408
2016-02-29T11:38:22.947Z,2228
2016-02-29T11:39:22.935Z,2132
2016-02-29T11:40:22.938Z,2064
2016-02-29T11:41:22.940Z,2048
2016-02-29T11:42:22.943Z,1964
2016-02-29T11:43:22.961Z,1964
2016-02-29T11:44:22.932Z,1880
2016-02-29T11:45:22.951Z,1812
2016-02-29T11:46:22.953Z,1792
2016-02-29T11:47:22.972Z,1892
2016-02-29T11:48:22.959Z,1888
2016-02-29T11:49:22.993Z,1856
2016-02-29T11:50:22.949Z,1828
2016-02-29T11:51:22.936Z,1716
2016-02-29T11:52:22.970Z,1596
2016-02-29T11:53:22.942Z,1528
2016-02-29T11:54:25.132Z,1576
2016-02-29T11:55:22.945Z,1588
2016-02-29T11:56:22.962Z,1608
2016-02-29T11:57:22.934Z,1676
2016-02-29T11:58:22.983Z,1668
2016-02-29T11:59:22.939Z,1776
2016-02-29T12:00:22.942Z,1952
2016-02-29T12:01:22.961Z,1940
2016-02-29T12:02:22.947Z,1948
2016-02-29T12:03:22.981Z,2060
2016-02-29T12:04:22.936Z,2144
2016-02-29T12:05:22.939Z,2200
2016-02-29T12:06:22.958Z,2268
2016-02-29T12:07:22.961Z,2204
2016-02-29T12:08:22.948Z,2100
2016-02-29T12:09:22.950Z,1952
2016-02-29T12:10:22.953Z,1956
2016-02-29T12:11:22.955Z,1928
2016-02-29T12:12:22.958Z,1852
2016-02-29T12:13:22.977Z,1876
2016-02-29T12:14:22.949Z,1976
2016-02-29T12:15:22.982Z,1968
2016-02-29T12:16:22.985Z,1960
2016-02-29T12:17:22.957Z,1984
2016-02-29T12:18:22.960Z,1988
2016-02-29T12:19:22.962Z,1992
2016-02-29T12:20:22.949Z,2032
2016-02-29T12:21:23.280Z,2132
2016-02-29T12:22:22.970Z,2272
2016-02-29T12:23:22.973Z,2392
2016-02-29T12:24:22.960Z,2480
2016-02-29T12:25:22.962Z,2540
2016-02-29T12:26:22.965Z,2604
2016-02-29T12:27:22.967Z,2680
2016-02-29T12:28:22.986Z,2768
2016-02-29T12:29:22.973Z,2828
2016-02-29T12:30:23.038Z,2816
2016-02-29T12:31:22.978Z,2768
2016-02-29T12:32:22.950Z,2868
2016-02-29T12:33:22.983Z,2704
2016-02-29T12:34:22.987Z,2448
2016-02-29T12:35:22.989Z,2592
2016-02-29T12:36:22.976Z,2540
2016-02-29T12:37:22.964Z,2424
2016-02-29T12:38:22.966Z,2296
2016-02-29T12:39:22.984Z,2112
2016-02-29T12:40:22.986Z,2144
2016-02-29T12:41:22.990Z,2176
2016-02-29T12:42:22.992Z,2140
2016-02-29T12:43:23.042Z,2068
2016-02-29T12:44:22.966Z,2052
2016-02-29T12:45:22.985Z,2084
2016-02-29T12:46:22.987Z,2124
2016-02-29T12:47:22.991Z,2148
2016-02-29T12:48:22.977Z,2132
2016-02-29T12:49:22.980Z,2284
2016-02-29T12:50:23.013Z,2356
2016-02-29T12:51:23.001Z,2216
2016-02-29T12:52:22.988Z,2024
2016-02-29T12:53:23.007Z,2012
2016-02-29T12:54:22.978Z,2012
2016-02-29T12:55:22.824Z,1936
2016-02-29T12:56:22.984Z,1820
2016-02-29T12:57:23.017Z,1732
2016-02-29T12:58:23.004Z,1676
2016-02-29T12:59:23.006Z,1732
2016-02-29T13:00:22.994Z,1888
2016-02-29T13:01:23.012Z,1884
2016-02-29T13:02:23.015Z,1800
2016-02-29T13:03:23.002Z,1712
2016-02-29T13:04:23.005Z,1752
2016-02-29T13:05:22.998Z,1812
2016-02-29T13:06:23.001Z,1824
2016-02-29T13:07:23.003Z,1840
2016-02-29T13:08:23.021Z,1768
2016-02-29T13:09:22.992Z,1712
2016-02-29T13:10:23.011Z,1672
2016-02-29T13:11:22.998Z,1636
2016-02-29T13:12:23.001Z,1532
2016-02-29T13:13:23.020Z,1596
2016-02-29T13:14:23.006Z,1744
2016-02-29T13:15:23.009Z,1848
2016-02-29T13:16:23.042Z,1892
2016-02-29T13:17:23.014Z,1928
2016-02-29T13:18:23.017Z,1980
2016-02-29T13:19:23.020Z,2032
2016-02-29T13:20:23.007Z,2036
2016-02-29T13:21:23.025Z,2052
2016-02-29T13:22:23.012Z,2100
2016-02-29T13:23:23.030Z,2148
2016-02-29T13:24:23.018Z,2184
2016-02-29T13:25:23.021Z,2240
2016-02-29T13:26:23.008Z,2260
2016-02-29T13:27:23.041Z,2292
2016-02-29T13:28:23.029Z,2280
2016-02-29T13:29:23.015Z,2256
2016-02-29T13:30:23.034Z,2260
2016-02-29T13:31:23.021Z,2240
2016-02-29T13:32:23.008Z,2180
2016-02-29T13:33:23.073Z,2056
2016-02-29T13:34:23.013Z,1940
2016-02-29T13:35:23.048Z,1868
2016-02-29T13:36:23.018Z,1856
2016-02-29T13:37:23.021Z,1964
2016-02-29T13:38:23.040Z,2084
2016-02-29T13:39:23.090Z,2160
2016-02-29T13:40:23.045Z,2168
2016-02-29T13:41:23.064Z,2100
2016-02-29T13:42:23.019Z,2004
2016-02-29T13:43:23.070Z,1992
2016-02-29T13:44:23.040Z,2004
2016-02-29T13:45:23.043Z,2004
2016-02-29T13:46:23.030Z,1976
2016-02-29T13:47:23.033Z,1968
2016-02-29T13:48:23.066Z,1936
2016-02-29T13:49:23.038Z,1908
2016-02-29T13:50:23.055Z,1904
2016-02-29T13:51:23.044Z,1840
2016-02-29T13:52:23.061Z,1768
2016-02-29T13:53:23.049Z,1788
2016-02-29T13:54:23.051Z,1800
2016-02-29T13:55:23.054Z,1784
2016-02-29T13:56:23.058Z,1780
2016-02-29T13:57:23.060Z,1756
2016-02-29T13:58:23.047Z,1708
2016-02-29T13:59:23.065Z,1784
2016-02-29T14:00:23.052Z,1820
2016-02-29T14:01:23.070Z,1748
2016-02-29T14:02:23.058Z,1664
2016-02-29T14:03:23.060Z,1656
2016-02-29T14:04:23.079Z,1800
2016-02-29T14:05:23.065Z,1852
2016-02-29T14:06:23.052Z,1912
2016-02-29T14:07:23.054Z,2052
2016-02-29T14:08:23.057Z,2092
2016-02-29T14:09:23.092Z,2068
2016-02-29T14:10:23.063Z,2008
2016-02-29T14:11:23.050Z,2052
2016-02-29T14:12:23.068Z,2108
2016-02-29T14:13:23.070Z,2120
2016-02-29T14:14:23.089Z,2132
2016-02-29T14:15:23.045Z,2036
2016-02-29T14:16:23.048Z,2000
2016-02-29T14:17:23.067Z,2020
2016-02-29T14:18:23.069Z,1896
2016-02-29T14:19:23.072Z,1768
2016-02-29T14:20:23.059Z,1680
2016-02-29T14:21:23.062Z,1528
2016-02-29T14:22:23.064Z,1432
2016-02-29T14:23:23.083Z,1524
2016-02-29T14:24:23.085Z,1504
2016-02-29T14:25:23.072Z,1428
2016-02-29T14:26:23.059Z,1428
2016-02-29T14:27:23.141Z,1460
2016-02-29T14:28:23.096Z,1496
2016-02-29T14:29:23.068Z,1508